createdAt,value
2022-09-28T00:00:13.031Z,11.57
2022-09-28T00:02:16.028Z,9.13
2022-09-28T00:04:20.618Z,7.30
2022-09-28T00:06:25.352Z,7.50
2022-09-28T00:08:28.287Z,7.50
2022-09-28T00:10:31.383Z,8.83
2022-09-28T00:12:34.648Z,9.03
2022-09-28T00:14:37.577Z,7.37
2022-09-28T00:16:43.513Z,8.00
2022-09-28T00:18:46.872Z,9.53
2022-09-28T00:21:01.008Z,7.70
2022-09-28T00:23:04.072Z,8.63
2022-09-28T00:25:08.179Z,12.87
2022-09-28T00:27:11.016Z,7.60
2022-09-28T00:29:22.233Z,6.90
2022-09-28T00:31:25.338Z,11.90
2022-09-28T00:33:28.261Z,9.40
2022-09-28T00:35:31.417Z,8.63
2022-09-28T00:37:37.779Z,7.13
2022-09-28T00:39:41.647Z,7.07
2022-09-28T00:41:45.062Z,9.83
2022-09-28T00:43:47.956Z,7.40
2022-09-28T00:45:57.785Z,6.97
2022-09-28T00:48:00.964Z,6.60
2022-09-28T00:50:07.519Z,10.90
2022-09-28T00:52:12.219Z,12.70
2022-09-28T00:54:17.433Z,5.30
2022-09-28T00:56:22.523Z,6.97
2022-09-28T00:58:28.653Z,10.43
2022-09-28T01:00:32.491Z,10.40
2022-09-28T01:02:35.552Z,5.73
2022-09-28T01:04:39.389Z,8.37
2022-09-28T01:06:42.475Z,9.07
2022-09-28T01:08:46.405Z,8.27
2022-09-28T01:10:51.979Z,7.87
2022-09-28T01:12:56.436Z,10.40
2022-09-28T01:15:01.915Z,9.17
2022-09-28T01:17:09.542Z,8.73
2022-09-28T01:19:33.133Z,10.30
2022-09-28T01:21:42.443Z,7.43
2022-09-28T01:24:09.686Z,6.27
2022-09-28T01:26:44.293Z,8.10
2022-09-28T01:28:48.382Z,9.40
2022-09-28T01:31:00.018Z,11.27
2022-09-28T01:33:06.642Z,7.57
2022-09-28T01:35:11.222Z,7.60
2022-09-28T01:37:16.369Z,9.20
2022-09-28T01:39:21.489Z,8.17
2022-09-28T01:41:25.428Z,6.43
2022-09-28T01:43:30.812Z,5.67
2022-09-28T01:45:37.047Z,6.97
2022-09-28T01:47:41.778Z,6.00
2022-09-28T01:49:48.425Z,5.57
2022-09-28T01:51:55.001Z,5.93
2022-09-28T01:54:02.276Z,4.60
2022-09-28T01:56:16.045Z,6.20
2022-09-28T01:58:23.196Z,4.97
2022-09-28T02:00:29.072Z,5.70
2022-09-28T02:02:36.504Z,5.80
2022-09-28T02:04:42.244Z,9.53
2022-09-28T02:06:49.457Z,10.90
2022-09-28T02:08:55.050Z,6.80
2022-09-28T02:11:16.058Z,12.63
2022-09-28T02:13:22.127Z,5.20
2022-09-28T02:15:30.440Z,6.63
2022-09-28T02:17:34.052Z,10.63
2022-09-28T02:19:37.359Z,7.23
2022-09-28T02:21:43.090Z,9.27
2022-09-28T02:23:55.312Z,9.60
2022-09-28T02:26:03.057Z,9.20
2022-09-28T02:28:08.033Z,7.70
2022-09-28T02:30:11.773Z,11.30
2022-09-28T02:32:16.627Z,10.60
2022-09-28T02:34:19.748Z,14.53
2022-09-28T02:36:23.145Z,9.47
2022-09-28T02:38:26.026Z,9.40
2022-09-28T02:40:33.099Z,8.77
2022-09-28T02:42:49.248Z,10.07
2022-09-28T02:45:15.082Z,8.67
2022-09-28T02:47:28.589Z,9.67
2022-09-28T02:49:36.102Z,10.83
2022-09-28T02:51:43.408Z,12.10
2022-09-28T02:54:02.201Z,11.30
2022-09-28T02:56:16.891Z,8.30
2022-09-28T02:58:23.316Z,9.23
2022-09-28T03:00:27.962Z,13.77
2022-09-28T03:02:37.110Z,12.60
2022-09-28T03:04:44.229Z,9.13
2022-09-28T03:06:57.924Z,9.33
2022-09-28T03:09:05.670Z,12.50
2022-09-28T03:11:16.649Z,13.20
2022-09-28T03:13:23.041Z,11.70
2022-09-28T03:15:28.306Z,11.80
2022-09-28T03:17:33.645Z,13.33
2022-09-28T03:19:37.156Z,12.50
2022-09-28T03:21:41.342Z,14.50
2022-09-28T03:23:44.719Z,13.50
2022-09-28T03:25:47.640Z,12.77
2022-09-28T03:27:50.805Z,12.57
2022-09-28T03:29:53.743Z,15.53
2022-09-28T03:31:57.049Z,15.80
2022-09-28T03:34:01.352Z,17.87
2022-09-28T03:36:04.393Z,14.23
2022-09-28T03:38:07.422Z,20.93
2022-09-28T03:40:13.906Z,18.73
2022-09-28T03:42:16.804Z,15.37
2022-09-28T03:44:23.995Z,15.90
2022-09-28T03:46:28.061Z,19.52
2022-09-28T03:48:37.592Z,17.97
2022-09-28T03:50:42.927Z,21.50
2022-09-28T03:52:46.034Z,21.60
2022-09-28T03:54:49.515Z,21.10
2022-09-28T03:56:52.882Z,23.00
2022-09-28T03:58:56.094Z,21.70
2022-09-28T04:01:03.408Z,24.70
2022-09-28T04:03:06.661Z,28.07
2022-09-28T04:05:09.994Z,27.53
2022-09-28T04:07:15.423Z,25.17
2022-09-28T04:09:18.929Z,26.63
2022-09-28T04:11:21.885Z,24.50
2022-09-28T04:13:25.122Z,29.03
2022-09-28T04:15:27.999Z,24.60
2022-09-28T04:17:34.632Z,32.73
2022-09-28T04:19:42.219Z,24.93
2022-09-28T04:22:01.487Z,29.30
2022-09-28T04:24:06.292Z,31.57
2022-09-28T04:26:16.644Z,28.50
2022-09-28T04:28:37.237Z,37.50
2022-09-28T04:30:40.446Z,32.90
2022-09-28T04:32:43.355Z,26.93
2022-09-28T04:34:46.201Z,25.17
2022-09-28T04:36:51.173Z,29.00
2022-09-28T04:38:54.576Z,28.40
2022-09-28T04:41:01.254Z,31.03
2022-09-28T04:43:04.400Z,27.47
2022-09-28T04:45:09.444Z,26.30
2022-09-28T04:47:15.809Z,22.47
2022-09-28T04:49:38.399Z,23.87
2022-09-28T04:51:46.696Z,23.00
2022-09-28T04:53:49.591Z,22.13
2022-09-28T04:55:57.917Z,21.67
2022-09-28T04:58:03.290Z,19.37
2022-09-28T05:00:08.329Z,26.70
2022-09-28T05:02:15.483Z,24.87
2022-09-28T05:04:50.543Z,25.17
2022-09-28T05:07:12.083Z,24.77
2022-09-28T05:09:15.101Z,21.33
2022-09-28T05:14:54.136Z,23.37
2022-09-28T05:16:57.222Z,23.70
2022-09-28T05:19:03.185Z,26.93
2022-09-28T05:21:12.864Z,26.47
2022-09-28T05:23:16.812Z,30.40
2022-09-28T05:25:19.845Z,30.20
2022-09-28T05:27:31.657Z,29.40
2022-09-28T05:29:43.482Z,26.43
2022-09-28T05:32:06.467Z,33.23
2022-09-28T05:34:19.263Z,34.67
2022-09-28T05:36:23.930Z,32.27
2022-09-28T05:38:27.060Z,30.47
2022-09-28T05:40:30.148Z,33.50
2022-09-28T05:42:33.374Z,31.53
2022-09-28T05:44:38.640Z,36.67
2022-09-28T05:46:41.842Z,32.67
2022-09-28T05:48:49.827Z,34.07
2022-09-28T05:50:54.338Z,35.93
2022-09-28T05:53:02.410Z,36.00
2022-09-28T05:55:06.420Z,41.67
2022-09-28T05:57:10.116Z,39.70
2022-09-28T05:59:15.509Z,45.43
2022-09-28T06:01:18.681Z,46.90
2022-09-28T06:03:22.270Z,37.90
2022-09-28T06:05:27.169Z,36.23
2022-09-28T06:07:30.233Z,44.40
2022-09-28T06:09:33.130Z,43.73
2022-09-28T06:11:48.336Z,45.70
2022-09-28T06:14:06.341Z,45.63
2022-09-28T06:16:10.550Z,46.63
2022-09-28T06:18:15.188Z,47.27
2022-09-28T06:20:39.710Z,40.10
2022-09-28T06:22:45.406Z,39.30
2022-09-28T06:24:49.182Z,42.13
2022-09-28T06:26:52.135Z,42.50
2022-09-28T06:28:56.215Z,33.20
2022-09-28T06:31:05.150Z,33.87
2022-09-28T06:33:15.059Z,34.10
2022-09-28T06:35:18.040Z,35.27
2022-09-28T06:37:22.305Z,33.93
2022-09-28T06:39:26.549Z,38.53
2022-09-28T06:41:29.690Z,39.47
2022-09-28T06:43:39.706Z,32.80
2022-09-28T06:45:53.017Z,30.90
2022-09-28T06:48:15.124Z,31.80
2022-09-28T06:50:19.446Z,30.07
2022-09-28T06:52:42.401Z,28.77
2022-09-28T06:55:00.037Z,29.10
2022-09-28T06:57:15.125Z,27.87
2022-09-28T06:59:18.128Z,34.07
2022-09-28T07:01:21.633Z,33.53
2022-09-28T07:03:35.119Z,23.90
2022-09-28T07:05:54.934Z,27.33
2022-09-28T07:08:20.241Z,26.00
2022-09-28T07:10:44.499Z,30.80
2022-09-28T07:13:08.535Z,21.53
2022-09-28T07:15:22.872Z,24.20
2022-09-28T07:17:26.136Z,32.17
2022-09-28T07:19:30.718Z,30.30
2022-09-28T07:21:33.946Z,24.80
2022-09-28T07:23:50.827Z,37.83
2022-09-28T07:25:59.197Z,24.23
2022-09-28T07:28:20.361Z,27.23
2022-09-28T07:30:35.372Z,21.93
2022-09-28T07:32:52.165Z,28.60
2022-09-28T07:35:09.037Z,19.73
2022-09-28T07:37:24.340Z,25.23
2022-09-28T07:39:28.977Z,24.37
2022-09-28T07:41:33.825Z,24.50
2022-09-28T07:43:40.326Z,23.50
2022-09-28T07:45:44.867Z,24.33
2022-09-28T07:47:48.114Z,27.20
2022-09-28T07:50:29.398Z,26.80
2022-09-28T07:52:57.429Z,31.93
2022-09-28T07:55:12.788Z,28.93
2022-09-28T07:57:26.784Z,27.17
2022-09-28T07:59:58.771Z,31.27
2022-09-28T08:02:23.547Z,38.60
2022-09-28T08:04:28.402Z,30.80
2022-09-28T08:06:32.504Z,37.87
2022-09-28T08:08:35.840Z,33.00
2022-09-28T08:10:44.450Z,36.10
2022-09-28T08:13:20.386Z,36.60
2022-09-28T08:15:37.078Z,41.90
2022-09-28T08:18:07.079Z,37.17
2022-09-28T08:20:28.014Z,39.20
2022-09-28T08:22:32.342Z,40.87
2022-09-28T08:24:36.507Z,38.13
2022-09-28T08:26:40.937Z,43.00
2022-09-28T08:28:45.261Z,39.20
2022-09-28T08:31:09.556Z,36.77
2022-09-28T08:33:30.945Z,40.60
2022-09-28T08:35:57.502Z,36.53
2022-09-28T08:38:19.034Z,43.53
2022-09-28T08:40:47.959Z,35.33
2022-09-28T08:43:11.571Z,35.27
2022-09-28T08:45:36.095Z,43.90
2022-09-28T08:48:08.616Z,35.60
2022-09-28T08:50:31.626Z,41.53
2022-09-28T08:52:58.484Z,36.10
2022-09-28T08:55:26.086Z,39.37
2022-09-28T08:57:33.469Z,35.20
2022-09-28T08:59:45.219Z,30.23
2022-09-28T09:01:58.076Z,34.93
2022-09-28T09:04:02.546Z,35.93
2022-09-28T09:06:31.317Z,38.37
2022-09-28T09:08:42.659Z,51.63
2022-09-28T09:10:52.125Z,44.20
2022-09-28T09:13:18.401Z,42.10
2022-09-28T09:15:41.646Z,38.30
2022-09-28T09:18:04.805Z,38.33
2022-09-28T09:20:20.689Z,34.33
2022-09-28T09:22:38.210Z,30.07
2022-09-28T09:24:49.391Z,31.27
2022-09-28T09:27:01.658Z,28.70
2022-09-28T09:29:23.605Z,30.97
2022-09-28T09:31:44.848Z,33.83
2022-09-28T09:34:25.083Z,32.43
2022-09-28T09:36:58.654Z,29.17
2022-09-28T09:39:35.227Z,31.67
2022-09-28T09:42:28.264Z,26.67
2022-09-28T09:45:18.560Z,23.87
2022-09-28T09:47:43.250Z,27.00
2022-09-28T09:50:08.405Z,21.40
2022-09-28T09:52:16.149Z,24.20
2022-09-28T09:54:23.118Z,19.20
2022-09-28T09:56:31.337Z,21.03
2022-09-28T09:58:48.014Z,20.73
2022-09-28T10:00:56.452Z,20.20
2022-09-28T10:03:24.148Z,19.03
2022-09-28T10:05:32.166Z,24.00
2022-09-28T10:07:43.258Z,20.57
2022-09-28T10:09:47.725Z,22.70
2022-09-28T10:11:58.929Z,30.97
2022-09-28T10:14:01.982Z,31.90
2022-09-28T10:16:34.259Z,28.63
2022-09-28T10:18:40.370Z,27.80
2022-09-28T10:21:13.358Z,26.63
2022-09-28T10:23:28.347Z,21.57
2022-09-28T10:25:33.659Z,20.90
2022-09-28T10:27:40.736Z,18.17
2022-09-28T10:29:53.780Z,19.70
2022-09-28T10:31:57.122Z,23.57
2022-09-28T10:34:05.897Z,23.67
2022-09-28T10:36:08.901Z,30.53
2022-09-28T10:38:17.059Z,30.10
2022-09-28T10:40:30.310Z,23.60
2022-09-28T10:42:37.428Z,25.20
2022-09-28T10:44:57.855Z,18.33
2022-09-28T10:47:23.220Z,16.50
2022-09-28T10:49:28.586Z,20.37
2022-09-28T10:51:45.139Z,17.57
2022-09-28T10:54:03.130Z,14.57
2022-09-28T10:56:23.956Z,20.83
2022-09-28T10:58:39.310Z,16.63
2022-09-28T11:00:44.776Z,24.00
2022-09-28T11:02:50.680Z,11.83
2022-09-28T11:05:00.708Z,11.93
2022-09-28T11:07:17.911Z,10.47
2022-09-28T11:09:30.584Z,9.73
2022-09-28T11:11:41.663Z,9.53
2022-09-28T11:13:47.108Z,8.33
2022-09-28T11:15:54.447Z,16.90
2022-09-28T11:18:20.657Z,8.83
2022-09-28T11:20:35.576Z,9.33
2022-09-28T11:22:44.342Z,8.70
2022-09-28T11:24:48.660Z,11.03
2022-09-28T11:26:54.393Z,8.07
2022-09-28T11:29:01.190Z,10.20
2022-09-28T11:31:16.226Z,10.73
2022-09-28T11:33:40.604Z,6.13
2022-09-28T11:36:29.647Z,6.40
2022-09-28T11:38:34.954Z,7.00
2022-09-28T11:41:15.127Z,8.30
2022-09-28T11:43:45.840Z,4.80
2022-09-28T11:45:53.248Z,8.10
2022-09-28T11:47:59.183Z,3.13
2022-09-28T11:50:06.413Z,4.53
2022-09-28T11:52:14.914Z,2.60
2022-09-28T11:54:28.828Z,2.60
2022-09-28T11:56:35.865Z,4.77
2022-09-28T11:58:41.977Z,2.63
2022-09-28T12:00:51.739Z,4.20
2022-09-28T12:03:01.999Z,6.63
2022-09-28T12:05:18.495Z,3.50
2022-09-28T12:07:29.275Z,6.20
2022-09-28T12:09:37.931Z,3.20
2022-09-28T12:11:59.935Z,9.03
2022-09-28T12:14:22.771Z,6.50
2022-09-28T12:18:56.226Z,6.40
2022-09-28T12:21:09.828Z,4.93
2022-09-28T12:23:17.219Z,8.40
2022-09-28T12:25:22.550Z,6.60
2022-09-28T12:27:29.195Z,12.60
2022-09-28T12:29:36.468Z,6.90
2022-09-28T12:31:42.156Z,10.30
2022-09-28T12:33:47.772Z,10.70
2022-09-28T12:36:07.075Z,13.17
2022-09-28T12:38:28.834Z,6.00
2022-09-28T12:40:38.383Z,8.00
2022-09-28T12:42:52.397Z,6.37
2022-09-28T12:45:08.178Z,7.53
2022-09-28T12:47:43.523Z,6.93
2022-09-28T12:52:30.932Z,6.90
2022-09-28T12:54:57.403Z,6.13
2022-09-28T12:57:09.670Z,8.27
2022-09-28T12:59:19.413Z,5.63
2022-09-28T13:01:36.205Z,10.03
2022-09-28T13:04:15.475Z,6.78
2022-09-28T13:06:42.638Z,8.03
2022-09-28T13:08:56.358Z,5.28
2022-09-28T13:11:08.231Z,7.15
2022-09-28T13:13:26.888Z,8.77
2022-09-28T13:15:51.504Z,7.07
2022-09-28T13:18:01.756Z,6.88
2022-09-28T13:20:16.064Z,7.20
2022-09-28T13:22:28.443Z,8.90
2022-09-28T13:24:35.614Z,5.38
2022-09-28T13:26:44.972Z,4.53
2022-09-28T13:28:48.515Z,4.10
2022-09-28T13:30:52.409Z,7.40
2022-09-28T13:32:57.602Z,4.93
2022-09-28T13:35:02.180Z,4.50
2022-09-28T13:37:24.141Z,3.93
2022-09-28T13:39:38.719Z,6.67
2022-09-28T13:41:48.801Z,5.77
2022-09-28T13:44:17.937Z,5.20
2022-09-28T13:46:26.521Z,4.20
2022-09-28T13:48:42.572Z,4.80
2022-09-28T13:51:17.711Z,7.13
2022-09-28T13:53:28.388Z,7.07
2022-09-28T13:55:37.172Z,9.10
2022-09-28T13:57:47.644Z,6.00
2022-09-28T13:59:59.176Z,9.27
2022-09-28T14:02:07.759Z,10.43
2022-09-28T14:04:19.029Z,4.90
2022-09-28T14:06:24.443Z,4.80
2022-09-28T14:08:34.668Z,6.33
2022-09-28T14:10:51.992Z,9.00
2022-09-28T14:12:56.513Z,5.60
2022-09-28T14:15:00.331Z,5.97
2022-09-28T14:17:48.949Z,5.50
2022-09-28T14:19:54.528Z,4.73
2022-09-28T14:22:09.184Z,7.57
2022-09-28T14:24:27.418Z,6.90
2022-09-28T14:27:03.924Z,5.90
2022-09-28T14:29:17.052Z,5.87
2022-09-28T14:31:26.479Z,4.13
2022-09-28T14:33:31.453Z,6.93
2022-09-28T14:35:41.771Z,5.95
2022-09-28T14:38:06.038Z,10.65
2022-09-28T14:40:36.273Z,4.85
2022-09-28T14:42:40.375Z,7.15
2022-09-28T14:45:21.867Z,3.90
2022-09-28T14:47:27.398Z,7.13
2022-09-28T14:49:53.279Z,7.53
2022-09-28T14:52:05.838Z,4.53
2022-09-28T14:54:17.135Z,4.68
2022-09-28T14:56:20.750Z,5.15
2022-09-28T14:58:28.673Z,4.00
2022-09-28T15:00:33.129Z,9.95
2022-09-28T15:02:38.451Z,5.22
2022-09-28T15:04:44.933Z,5.70
2022-09-28T15:06:49.294Z,5.53
2022-09-28T15:08:52.865Z,5.27
2022-09-28T15:10:56.848Z,5.97
2022-09-28T15:13:01.862Z,3.87
2022-09-28T15:15:08.973Z,5.70
2022-09-28T15:17:14.895Z,6.13
2022-09-28T15:19:23.813Z,4.40
2022-09-28T15:21:35.011Z,6.93
2022-09-28T15:23:39.943Z,4.40
2022-09-28T15:25:51.671Z,3.90
2022-09-28T15:27:56.391Z,5.23
2022-09-28T15:30:00.255Z,3.73
2022-09-28T15:32:04.087Z,12.30
2022-09-28T15:34:30.925Z,24.57
2022-09-28T15:36:36.332Z,5.80
2022-09-28T15:39:25.666Z,5.80
2022-09-28T15:41:29.208Z,4.60
2022-09-28T15:43:33.902Z,3.43
2022-09-28T15:45:44.612Z,6.93
2022-09-28T15:47:47.610Z,3.50
2022-09-28T15:49:58.704Z,9.23
2022-09-28T15:52:03.189Z,9.27
2022-09-28T15:54:19.339Z,5.77
2022-09-28T15:56:22.930Z,6.73
2022-09-28T15:58:26.444Z,9.50
2022-09-28T16:00:31.490Z,12.23
2022-09-28T16:02:34.502Z,8.67
2022-09-28T16:04:40.006Z,7.07
2022-09-28T16:06:44.374Z,6.00
2022-09-28T16:08:48.926Z,5.27
2022-09-28T16:10:55.996Z,10.80
2022-09-28T16:13:08.471Z,8.67
2022-09-28T16:15:20.237Z,8.47
2022-09-28T16:17:33.676Z,7.47
2022-09-28T16:19:38.341Z,5.90
2022-09-28T16:21:47.249Z,6.10
2022-09-28T16:23:52.143Z,8.50
2022-09-28T16:25:58.843Z,8.80
2022-09-28T16:28:02.166Z,8.33
2022-09-28T16:30:16.291Z,7.90
2022-09-28T16:32:41.754Z,5.47
2022-09-28T16:34:44.816Z,7.23
2022-09-28T16:36:50.465Z,5.93
2022-09-28T16:38:54.390Z,8.53
2022-09-28T16:41:01.354Z,5.93
2022-09-28T16:43:07.175Z,7.10
2022-09-28T16:45:15.538Z,12.10
2022-09-28T16:47:19.247Z,6.03
2022-09-28T16:49:23.634Z,6.87
2022-09-28T16:51:26.627Z,8.93
2022-09-28T16:53:48.193Z,8.50
2022-09-28T16:55:51.113Z,5.97
2022-09-28T16:57:54.150Z,4.40
2022-09-28T16:59:56.973Z,5.83
2022-09-28T17:02:00.007Z,4.37
2022-09-28T17:04:03.340Z,2.97
2022-09-28T17:06:11.778Z,6.57
2022-09-28T17:08:17.509Z,5.60
2022-09-28T17:10:25.560Z,6.27
2022-09-28T17:12:29.165Z,4.43
2022-09-28T17:14:32.831Z,7.60
2022-09-28T17:17:06.107Z,3.50
2022-09-28T17:19:01.127Z,6.60
2022-09-28T17:21:07.569Z,2.73
2022-09-28T17:23:10.444Z,4.13
2022-09-28T17:25:13.425Z,2.73
2022-09-28T17:27:21.284Z,2.60
2022-09-28T17:29:24.245Z,4.00
2022-09-28T17:31:27.464Z,5.33
2022-09-28T17:33:30.672Z,4.23
2022-09-28T17:35:38.849Z,5.33
2022-09-28T17:37:42.791Z,2.30
2022-09-28T17:39:45.773Z,7.07
2022-09-28T17:41:48.716Z,3.43
2022-09-28T17:43:53.143Z,1.77
2022-09-28T17:45:56.108Z,2.03
2022-09-28T17:48:00.703Z,2.17
2022-09-28T17:50:04.001Z,3.03
2022-09-28T17:52:07.251Z,7.33
2022-09-28T17:54:10.294Z,4.00
2022-09-28T17:56:13.360Z,3.30
2022-09-28T17:58:18.078Z,5.07
2022-09-28T18:00:23.004Z,3.13
2022-09-28T18:02:27.085Z,8.87
2022-09-28T18:04:50.666Z,4.47
2022-09-28T18:06:54.092Z,2.73
2022-09-28T18:08:57.045Z,4.20
2022-09-28T18:11:01.626Z,5.40
2022-09-28T18:13:04.727Z,3.00
2022-09-28T18:15:09.070Z,4.40
2022-09-28T18:17:13.535Z,2.73
2022-09-28T18:19:16.593Z,3.37
2022-09-28T18:21:19.867Z,4.60
2022-09-28T18:23:23.136Z,5.00
2022-09-28T18:25:29.819Z,9.60
2022-09-28T18:27:35.518Z,2.20
2022-09-28T18:29:38.528Z,5.37
2022-09-28T18:31:41.600Z,2.77
2022-09-28T18:33:46.339Z,2.40
2022-09-28T18:35:53.036Z,4.13
2022-09-28T18:37:55.996Z,4.07
2022-09-28T18:39:59.339Z,2.57
2022-09-28T18:42:02.409Z,2.83
2022-09-28T18:44:05.346Z,3.50
2022-09-28T18:46:09.336Z,3.33
2022-09-28T18:48:13.957Z,4.33
2022-09-28T18:50:18.303Z,10.37
2022-09-28T18:52:21.283Z,3.53
2022-09-28T18:54:25.410Z,7.60
2022-09-28T18:56:29.716Z,4.90
2022-09-28T18:58:35.748Z,3.27
2022-09-28T19:00:40.213Z,3.13
2022-09-28T19:02:43.525Z,3.57
2022-09-28T19:04:46.549Z,4.17
2022-09-28T19:06:54.431Z,3.13
2022-09-28T19:08:58.181Z,2.47
2022-09-28T19:11:08.489Z,2.57
2022-09-28T19:13:11.464Z,3.97
2022-09-28T19:15:14.503Z,3.57
2022-09-28T19:17:18.391Z,3.90
2022-09-28T19:19:21.941Z,2.80
2022-09-28T19:21:25.057Z,4.33
2022-09-28T19:23:30.864Z,2.53
2022-09-28T19:25:34.120Z,2.50
2022-09-28T19:27:37.523Z,3.63
2022-09-28T19:29:40.555Z,10.23
2022-09-28T19:31:44.620Z,4.00
2022-09-28T19:33:48.191Z,2.77
2022-09-28T19:35:57.213Z,7.33
2022-09-28T19:38:00.258Z,5.87
2022-09-28T19:40:06.006Z,2.83
2022-09-28T19:42:09.141Z,3.57
2022-09-28T19:44:15.835Z,4.10
2022-09-28T19:46:18.998Z,7.93
2022-09-28T19:48:26.608Z,6.20
2022-09-28T19:50:30.201Z,4.50
2022-09-28T19:52:33.206Z,3.90
2022-09-28T19:54:37.649Z,4.63
2022-09-28T19:56:43.208Z,3.30
2022-09-28T19:58:46.228Z,5.00
2022-09-28T20:00:49.273Z,5.63
2022-09-28T20:02:52.987Z,5.53
2022-09-28T20:04:55.983Z,6.77
2022-09-28T20:06:58.990Z,2.53
2022-09-28T20:09:02.413Z,4.17
2022-09-28T20:11:08.407Z,4.03
2022-09-28T20:13:12.831Z,3.10
2022-09-28T20:15:16.630Z,5.73
2022-09-28T20:17:21.682Z,4.57
2022-09-28T20:19:24.712Z,3.30
2022-09-28T20:21:27.924Z,5.03
2022-09-28T20:23:31.377Z,2.90
2022-09-28T20:25:35.590Z,7.40
2022-09-28T20:27:39.198Z,3.67
2022-09-28T20:29:43.514Z,3.57
2022-09-28T20:31:46.546Z,3.70
2022-09-28T20:33:49.941Z,6.70
2022-09-28T20:35:52.908Z,3.17
2022-09-28T20:37:59.205Z,7.50
2022-09-28T20:40:02.726Z,2.87
2022-09-28T20:42:06.485Z,5.50
2022-09-28T20:44:09.961Z,3.20
2022-09-28T20:46:17.660Z,6.47
2022-09-28T20:48:21.797Z,5.73
2022-09-28T20:50:25.337Z,4.53
2022-09-28T20:52:28.405Z,6.70
2022-09-28T20:54:32.251Z,3.30
2022-09-28T20:56:38.282Z,5.30
2022-09-28T20:58:41.926Z,4.70
2022-09-28T21:00:45.750Z,3.60
2022-09-28T21:02:53.920Z,4.90
2022-09-28T21:04:57.064Z,3.63
2022-09-28T21:07:00.012Z,3.40
2022-09-28T21:09:03.743Z,3.70
2022-09-28T21:11:09.436Z,4.50
2022-09-28T21:13:12.498Z,7.87
2022-09-28T21:15:15.564Z,3.87
2022-09-28T21:17:18.530Z,5.40
2022-09-28T21:19:24.177Z,3.27
2022-09-28T21:21:27.383Z,4.07
2022-09-28T21:23:30.388Z,6.10
2022-09-28T21:25:33.340Z,5.03
2022-09-28T21:27:36.554Z,5.00
2022-09-28T21:29:39.460Z,5.80
2022-09-28T21:31:45.661Z,4.30
2022-09-28T21:33:48.647Z,6.90
2022-09-28T21:35:53.080Z,6.77
2022-09-28T21:37:56.131Z,9.90
2022-09-28T21:39:59.494Z,8.20
2022-09-28T21:42:02.469Z,4.10
2022-09-28T21:44:05.555Z,4.70
2022-09-28T21:46:08.622Z,7.00
2022-09-28T21:48:11.759Z,6.03
2022-09-28T21:50:15.139Z,4.50
2022-09-28T21:52:19.419Z,4.33
2022-09-28T21:54:22.504Z,4.70
2022-09-28T21:56:26.747Z,6.60
2022-09-28T21:58:31.357Z,4.70
2022-09-28T22:00:34.537Z,4.90
2022-09-28T22:02:38.990Z,6.40
2022-09-28T22:04:42.049Z,4.13
2022-09-28T22:06:45.009Z,5.17
2022-09-28T22:08:50.133Z,8.60
2022-09-28T22:11:00.881Z,7.03
2022-09-28T22:13:03.812Z,5.10
2022-09-28T22:15:08.170Z,5.67
2022-09-28T22:17:11.096Z,4.57
2022-09-28T22:19:13.992Z,6.97
2022-09-28T22:21:18.732Z,7.70
2022-09-28T22:23:22.724Z,4.83
2022-09-28T22:25:27.208Z,4.43
2022-09-28T22:27:32.914Z,4.20
2022-09-28T22:29:36.008Z,5.03
2022-09-28T22:31:40.688Z,5.30
2022-09-28T22:33:43.715Z,4.70
2022-09-28T22:35:49.135Z,4.37
2022-09-28T22:37:52.098Z,5.10
2022-09-28T22:39:55.338Z,4.67
2022-09-28T22:41:59.738Z,5.33
2022-09-28T22:44:02.987Z,9.60
2022-09-28T22:46:10.346Z,5.87
2022-09-28T22:48:13.892Z,5.27
2022-09-28T22:50:16.918Z,9.23
2022-09-28T22:52:19.787Z,5.90
2022-09-28T22:54:22.733Z,8.83
2022-09-28T22:56:26.003Z,4.73
2022-09-28T22:58:30.260Z,4.53
2022-09-28T23:00:33.389Z,5.00
2022-09-28T23:02:36.354Z,3.93
2022-09-28T23:04:39.356Z,5.93
2022-09-28T23:06:42.490Z,4.40
2022-09-28T23:08:45.970Z,5.60
2022-09-28T23:10:49.677Z,4.07
2022-09-28T23:12:54.837Z,5.93
2022-09-28T23:14:59.144Z,4.70
2022-09-28T23:17:02.111Z,5.03
2022-09-28T23:19:05.183Z,4.80
2022-09-28T23:21:10.752Z,4.97
2022-09-28T23:23:14.513Z,4.40
2022-09-28T23:25:18.800Z,5.00
2022-09-28T23:27:22.156Z,4.63
2022-09-28T23:29:25.149Z,4.30
2022-09-28T23:31:31.476Z,5.40
2022-09-28T23:33:34.547Z,5.10
2022-09-28T23:35:37.495Z,5.57
2022-09-28T23:37:40.564Z,7.03
2022-09-28T23:39:44.419Z,6.13
2022-09-28T23:41:47.432Z,6.80
2022-09-28T23:43:50.382Z,11.87
2022-09-28T23:45:53.450Z,6.23
2022-09-28T23:47:57.979Z,7.67
2022-09-28T23:50:00.961Z,6.63
2022-09-28T23:52:03.866Z,7.40
2022-09-28T23:54:06.893Z,5.90
2022-09-28T23:56:09.849Z,7.83
2022-09-28T23:58:13.576Z,9.20
